Time;durP1;ratioP1;P1;durP2;ratioP2;P2;SDS_P1;SDS_P2;PMS_P1;PMS_P2;Temp;Humidity;BMP_temperature;BMP_pressure;BME280_temperature;BME280_humidity;BME280_pressure;Samples;Min_cycle;Max_cycle;Signal;HPM_P1;HPM_P2
2024/02/16 00:00:08;;;;;;;31.38;15.82;;;;;;;3.66;100.00;98169.66;4994029;28;20045;-82
2024/02/16 00:02:33;;;;;;;32.78;15.82;;;;;;;3.61;100.00;98166.28;4994491;28;20399;-81
2024/02/16 00:04:59;;;;;;;34.80;16.08;;;;;;;3.64;100.00;98168.84;4978640;28;20040;-83
2024/02/16 00:07:25;;;;;;;37.25;15.77;;;;;;;3.83;100.00;98162.19;5008154;28;20029;-83
2024/02/16 00:09:50;;;;;;;37.20;16.67;;;;;;;3.83;100.00;98174.53;4977106;28;20410;-84
2024/02/16 00:12:16;;;;;;;27.73;15.65;;;;;;;3.98;100.00;98190.03;4988929;28;20045;-82
2024/02/16 00:14:42;;;;;;;34.92;17.60;;;;;;;3.98;100.00;98173.28;4982592;28;20030;-82
2024/02/16 00:17:10;;;;;;;37.85;16.65;;;;;;;3.86;100.00;98166.53;4987384;28;20100;-83
2024/02/16 00:19:36;;;;;;;42.10;17.77;;;;;;;3.78;100.00;98169.34;4990523;28;20026;-84
2024/02/16 00:22:02;;;;;;;48.97;18.38;;;;;;;3.93;100.00;98183.13;4979017;28;20034;-83
2024/02/16 00:24:27;;;;;;;41.67;18.77;;;;;;;3.94;100.00;98179.56;4989744;28;20038;-84
2024/02/16 00:26:53;;;;;;;38.08;18.13;;;;;;;4.04;100.00;98175.75;4993987;28;20034;-82
2024/02/16 00:29:19;;;;;;;37.28;18.55;;;;;;;4.06;100.00;98182.75;5010122;28;20099;-83
2024/02/16 00:31:44;;;;;;;44.58;20.27;;;;;;;4.02;100.00;98180.25;4993692;28;20147;-82
2024/02/16 00:34:10;;;;;;;37.70;18.90;;;;;;;4.06;100.00;98180.09;4993920;28;20375;-82
2024/02/16 00:36:36;;;;;;;36.88;17.42;;;;;;;3.99;100.00;98177.66;4974610;28;20402;-83
2024/02/16 00:39:03;;;;;;;33.63;15.43;;;;;;;3.89;100.00;98174.38;5009753;28;20037;-83
2024/02/16 00:41:29;;;;;;;32.60;14.90;;;;;;;3.93;100.00;98169.88;4985759;28;20112;-84
2024/02/16 00:43:56;;;;;;;28.42;14.05;;;;;;;3.96;100.00;98183.03;5009963;28;20145;-84
2024/02/16 00:46:23;;;;;;;29.73;14.35;;;;;;;3.88;100.00;98179.72;4980665;28;20036;-83
2024/02/16 00:48:49;;;;;;;27.20;14.15;;;;;;;3.89;100.00;98181.44;4974692;28;20072;-83
2024/02/16 00:51:15;;;;;;;30.55;15.82;;;;;;;3.90;100.00;98175.25;4986933;28;20033;-83
2024/02/16 00:53:41;;;;;;;31.05;15.02;;;;;;;3.88;100.00;98179.72;4993806;28;20028;-83
2024/02/16 00:56:07;;;;;;;31.33;14.55;;;;;;;3.86;100.00;98187.69;4993608;28;20030;-84
2024/02/16 00:58:32;;;;;;;22.88;12.02;;;;;;;3.81;100.00;98179.84;4991255;28;20153;-83
2024/02/16 01:00:58;;;;;;;20.17;11.13;;;;;;;3.80;100.00;98188.72;4975765;28;20513;-82
2024/02/16 01:03:26;;;;;;;22.35;11.90;;;;;;;3.83;100.00;98187.78;4996401;28;20099;-82
2024/02/16 01:05:52;;;;;;;25.65;11.40;;;;;;;3.88;100.00;98185.03;4974822;28;20549;-83
2024/02/16 01:08:18;;;;;;;23.45;11.23;;;;;;;3.87;100.00;98180.63;4989368;28;20173;-82
2024/02/16 01:10:44;;;;;;;27.85;11.98;;;;;;;3.90;100.00;98169.97;4977811;28;20113;-82
2024/02/16 01:13:10;;;;;;;22.20;11.18;;;;;;;3.98;100.00;98186.50;4993595;28;20021;-83
2024/02/16 01:15:37;;;;;;;26.35;12.25;;;;;;;3.92;100.00;98168.13;4993538;28;20091;-82
2024/02/16 01:18:05;;;;;;;25.08;12.88;;;;;;;3.99;100.00;98172.38;4991657;28;20397;-81
2024/02/16 01:20:31;;;;;;;23.20;12.35;;;;;;;4.09;100.00;98184.47;4978150;28;20119;-82
2024/02/16 01:22:57;;;;;;;30.23;13.55;;;;;;;4.12;100.00;98181.75;4973793;28;20034;-83
2024/02/16 01:25:23;;;;;;;31.30;13.55;;;;;;;4.05;100.00;98172.22;4989995;28;20041;-83
2024/02/16 01:27:48;;;;;;;24.15;12.48;;;;;;;3.94;100.00;98179.56;4993957;28;20407;-82
2024/02/16 01:30:15;;;;;;;27.27;12.73;;;;;;;3.90;100.00;98170.84;4984897;28;20076;-82
2024/02/16 01:32:41;;;;;;;25.33;11.90;;;;;;;3.84;100.00;98184.22;5013721;28;20072;-82
2024/02/16 01:35:07;;;;;;;21.75;11.60;;;;;;;3.70;100.00;98179.25;4987005;28;20066;-82
2024/02/16 01:37:32;;;;;;;22.13;11.80;;;;;;;3.68;100.00;98167.88;4977940;28;20121;-82
2024/02/16 01:39:58;;;;;;;20.75;11.68;;;;;;;3.66;100.00;98177.59;5002583;28;20026;-82
2024/02/16 01:42:24;;;;;;;32.95;13.35;;;;;;;3.53;100.00;98162.94;4997332;28;20030;-81
2024/02/16 01:44:50;;;;;;;25.45;12.40;;;;;;;3.47;100.00;98175.44;4997078;28;20387;-82
2024/02/16 01:47:16;;;;;;;23.50;12.38;;;;;;;3.26;100.00;98163.59;4997094;28;20033;-82
2024/02/16 01:49:42;;;;;;;26.27;11.57;;;;;;;3.31;100.00;98167.00;4980119;28;20052;-83
2024/02/16 01:52:08;;;;;;;24.90;11.70;;;;;;;3.35;100.00;98162.53;5011824;28;20038;-83
2024/02/16 01:54:34;;;;;;;24.08;12.32;;;;;;;3.41;100.00;98171.19;4981242;28;20478;-82
2024/02/16 01:57:01;;;;;;;34.95;14.13;;;;;;;3.50;100.00;98164.78;4985579;28;20033;-82
2024/02/16 01:59:26;;;;;;;29.55;13.68;;;;;;;3.51;100.00;98166.50;4977430;28;20022;-83
2024/02/16 02:01:52;;;;;;;28.48;13.43;;;;;;;3.59;100.00;98161.94;4984858;28;20033;-82
2024/02/16 02:04:19;;;;;;;31.35;13.93;;;;;;;3.54;100.00;98169.97;5004971;28;20107;-82
2024/02/16 02:06:45;;;;;;;30.45;14.00;;;;;;;3.54;100.00;98169.97;5013336;28;20057;-82
2024/02/16 02:09:11;;;;;;;32.45;14.48;;;;;;;3.57;100.00;98174.34;5012856;28;20041;-82
2024/02/16 02:11:37;;;;;;;31.80;15.05;;;;;;;3.55;100.00;98161.13;4996784;28;20052;-83
2024/02/16 02:14:03;;;;;;;28.88;13.88;;;;;;;3.58;100.00;98170.75;4993645;28;20032;-81
2024/02/16 02:16:28;;;;;;;35.25;16.35;;;;;;;3.59;100.00;98161.94;4989014;28;20030;-82
2024/02/16 02:18:54;;;;;;;30.75;14.80;;;;;;;3.70;100.00;98165.16;5013126;28;20032;-82
2024/02/16 02:21:20;;;;;;;29.13;14.60;;;;;;;3.74;100.00;98172.13;4988228;28;20034;-83
2024/02/16 02:23:46;;;;;;;30.77;15.43;;;;;;;3.74;100.00;98172.13;4996946;28;20054;-83
2024/02/16 02:26:14;;;;;;;28.77;14.63;;;;;;;3.77;100.00;98157.06;4995211;28;20102;-82
2024/02/16 02:28:40;;;;;;;29.48;15.85;;;;;;;3.76;100.00;98159.72;4982560;28;20077;-82
2024/02/16 02:31:05;;;;;;;40.08;16.25;;;;;;;3.80;100.00;98167.56;5001349;28;20058;-83
2024/02/16 02:33:31;;;;;;;35.95;16.30;;;;;;;3.81;100.00;98163.13;4976955;28;20081;-83
2024/02/16 02:35:56;;;;;;;35.75;17.42;;;;;;;3.78;100.00;98169.34;4976758;28;20041;-83
2024/02/16 02:38:22;;;;;;;32.63;16.52;;;;;;;3.77;100.00;98172.94;4978252;28;20022;-82
2024/02/16 02:40:48;;;;;;;36.05;17.10;;;;;;;3.84;100.00;98171.00;4998638;28;20085;-82
2024/02/16 02:43:13;;;;;;;32.65;17.02;;;;;;;3.83;100.00;98161.31;5003146;28;20030;-82
2024/02/16 02:45:39;;;;;;;37.05;17.27;;;;;;;3.87;100.00;98165.63;4997045;28;20100;-83
2024/02/16 02:48:05;;;;;;;36.47;17.33;;;;;;;3.98;100.00;98171.50;4993294;28;20068;-83
2024/02/16 02:50:31;;;;;;;32.08;17.38;;;;;;;4.06;100.00;98166.03;4984753;28;20042;-83
2024/02/16 02:52:57;;;;;;;37.58;18.05;;;;;;;4.11;100.00;98162.34;4999200;28;20037;-82
2024/02/16 02:55:22;;;;;;;34.65;16.00;;;;;;;4.15;100.00;98168.44;4987800;28;20026;-82
2024/02/16 02:57:48;;;;;;;36.90;17.25;;;;;;;4.14;100.00;98171.97;4996095;28;20037;-82
2024/02/16 03:00:15;;;;;;;38.10;16.90;;;;;;;4.17;100.00;98171.88;4979247;28;20023;-81
2024/02/16 03:02:41;;;;;;;30.83;16.65;;;;;;;4.21;100.00;98166.50;4976383;28;20046;-82
2024/02/16 03:05:07;;;;;;;35.55;17.70;;;;;;;4.30;100.00;98179.47;4979113;28;20113;-83
2024/02/16 03:07:33;;;;;;;37.70;18.20;;;;;;;4.27;100.00;98179.56;5008558;28;20041;-82
2024/02/16 03:09:59;;;;;;;40.55;20.67;;;;;;;4.26;100.00;98179.59;5011978;28;20033;-82
2024/02/16 03:12:25;;;;;;;68.20;37.78;;;;;;;4.23;100.00;98172.59;5008984;28;20386;-84
2024/02/16 03:14:51;;;;;;;34.97;17.70;;;;;;;4.27;100.00;98176.91;4984938;28;20068;-82
2024/02/16 03:17:17;;;;;;;35.63;18.92;;;;;;;4.32;100.00;98172.34;4991908;28;20037;-81
2024/02/16 03:19:43;;;;;;;40.17;19.15;;;;;;;4.38;100.00;98171.31;4979746;28;20029;-81
2024/02/16 03:22:08;;;;;;;39.03;17.92;;;;;;;4.33;100.00;98183.81;4987973;28;20507;-82
2024/02/16 03:24:34;;;;;;;39.67;19.35;;;;;;;4.38;100.00;98177.47;4992227;28;20041;-82
2024/02/16 03:27:00;;;;;;;33.63;17.02;;;;;;;4.28;100.00;98180.41;4984470;28;20056;-83
2024/02/16 03:29:26;;;;;;;40.80;18.63;;;;;;;4.22;100.00;98169.97;4980878;28;20033;-83
2024/02/16 03:31:52;;;;;;;40.75;19.02;;;;;;;4.28;100.00;98175.97;4980577;28;20096;-83
2024/02/16 03:34:18;;;;;;;39.17;17.88;;;;;;;4.34;100.00;98175.81;4995631;28;20042;-82
2024/02/16 03:36:44;;;;;;;36.08;17.80;;;;;;;4.32;100.00;98171.47;4986468;28;20019;-82
2024/02/16 03:39:12;;;;;;;33.05;17.42;;;;;;;4.39;100.00;98178.34;4985215;28;20033;-83
2024/02/16 03:41:38;;;;;;;32.80;16.30;;;;;;;4.39;100.00;98181.00;5011369;28;20057;-82
2024/02/16 03:44:04;;;;;;;33.15;17.33;;;;;;;4.20;100.00;98164.75;4987000;28;20105;-86
2024/02/16 03:46:30;;;;;;;34.50;16.67;;;;;;;4.29;100.00;98177.72;4984937;28;20113;-84
2024/02/16 03:48:55;;;;;;;28.13;15.73;;;;;;;4.26;100.00;98169.00;4987126;28;20026;-84
2024/02/16 03:51:21;;;;;;;36.22;17.23;;;;;;;4.32;100.00;98171.47;4991612;28;20041;-85
2024/02/16 03:53:47;;;;;;;40.17;18.52;;;;;;;4.42;100.00;98174.75;4984581;28;20038;-86
2024/02/16 03:56:18;;;;;;;34.63;17.45;;;;;;;4.31;100.00;98167.94;4989710;28;20030;-86
2024/02/16 03:58:44;;;;;;;33.92;16.92;;;;;;;4.37;100.00;98175.72;4997679;28;20022;-86
2024/02/16 04:01:10;;;;;;;35.72;17.15;;;;;;;4.36;100.00;98178.44;4984393;28;20034;-86
2024/02/16 04:03:35;;;;;;;38.90;16.50;;;;;;;4.28;100.00;98169.81;4996675;28;20149;-86
2024/02/16 04:06:01;;;;;;;38.80;16.88;;;;;;;4.34;100.00;98172.28;4980735;28;20040;-87
2024/02/16 04:08:28;;;;;;;33.47;16.00;;;;;;;4.20;100.00;98150.63;4983351;28;20056;-86
2024/02/16 04:10:54;;;;;;;44.30;18.65;;;;;;;4.29;100.00;98183.03;4981958;28;20500;-86
2024/02/16 04:13:19;;;;;;;44.00;18.83;;;;;;;4.36;100.00;98189.91;4979566;28;20030;-86
2024/02/16 04:15:45;;;;;;;48.42;20.38;;;;;;;4.20;100.00;98185.03;4974944;28;20466;-86
2024/02/16 04:18:11;;;;;;;45.75;19.33;;;;;;;4.04;100.00;98186.34;4983879;28;20030;-85
2024/02/16 04:20:37;;;;;;;38.10;18.05;;;;;;;4.12;100.00;98189.69;5008069;28;20026;-85
2024/02/16 04:23:03;;;;;;;36.00;16.95;;;;;;;4.08;100.00;98174.78;4986359;28;20026;-85
2024/02/16 04:25:29;;;;;;;47.47;21.58;;;;;;;4.17;100.00;98186.00;4986101;28;20038;-83
2024/02/16 04:27:54;;;;;;;49.30;22.25;;;;;;;4.23;100.00;98179.66;4994646;28;20105;-84
2024/02/16 04:30:21;;;;;;;38.67;19.40;;;;;;;4.19;100.00;98183.28;4993450;28;20116;-85
2024/02/16 04:32:46;;;;;;;40.70;17.10;;;;;;;4.25;100.00;98196.38;4990688;28;20037;-85
2024/02/16 04:35:12;;;;;;;32.25;16.50;;;;;;;4.10;100.00;98175.59;4991017;28;20026;-86
2024/02/16 04:37:39;;;;;;;36.83;17.40;;;;;;;4.11;100.00;98177.34;5002557;28;20097;-85
2024/02/16 04:40:06;;;;;;;35.15;17.20;;;;;;;4.06;100.00;98176.63;4994300;28;20029;-86
2024/02/16 04:42:31;;;;;;;40.83;19.63;;;;;;;4.17;100.00;98187.78;4975522;28;20030;-80
2024/02/16 04:44:58;;;;;;;36.60;18.08;;;;;;;4.17;100.00;98182.47;4977746;28;20025;-83
2024/02/16 04:47:25;;;;;;;38.05;17.70;;;;;;;4.18;100.00;98194.81;4994187;28;20080;-83
2024/02/16 04:49:50;;;;;;;38.03;17.67;;;;;;;4.12;100.00;98189.69;5009706;28;20029;-83
2024/02/16 04:52:16;;;;;;;33.42;17.42;;;;;;;4.14;100.00;98183.44;4985499;28;20034;-84
2024/02/16 04:54:42;;;;;;;35.53;17.20;;;;;;;4.16;100.00;98186.03;4982164;28;20030;-82
2024/02/16 04:57:07;;;;;;;38.13;17.42;;;;;;;4.20;100.00;98185.91;4976939;28;20065;-82
2024/02/16 04:59:33;;;;;;;39.33;19.50;;;;;;;4.19;100.00;98183.28;4981520;28;20025;-80
2024/02/16 05:01:59;;;;;;;43.70;17.98;;;;;;;4.25;100.00;98184.00;4982411;28;20022;-83
2024/02/16 05:04:26;;;;;;;31.67;15.95;;;;;;;4.21;100.00;98184.16;4952987;28;20039;-82
2024/02/16 05:06:52;;;;;;;61.83;22.75;;;;;;;4.23;100.00;98195.56;4982081;28;20041;-82
2024/02/16 05:09:18;;;;;;;33.40;17.13;;;;;;;4.20;100.00;98185.91;4970951;28;20027;-84
2024/02/16 05:11:44;;;;;;;31.42;17.10;;;;;;;4.26;100.00;98192.81;4962545;28;20029;-81
2024/02/16 05:14:13;;;;;;;36.50;16.63;;;;;;;4.22;100.00;98180.56;4958936;28;20518;-84
2024/02/16 05:16:44;;;;;;;38.90;17.90;;;;;;;4.19;100.00;98185.94;4984713;28;20058;-83
2024/02/16 05:19:11;;;;;;;35.67;18.10;;;;;;;4.23;100.00;98198.19;4967500;28;20039;-82
2024/02/16 05:21:36;;;;;;;37.25;17.48;;;;;;;4.24;100.00;98202.59;4983740;28;20399;-83
2024/02/16 05:24:02;;;;;;;54.42;19.20;;;;;;;4.20;100.00;98196.50;4971880;28;20042;-76
2024/02/16 05:26:28;;;;;;;61.63;25.95;;;;;;;4.27;100.00;98200.75;4974146;28;20038;-79
2024/02/16 05:28:54;;;;;;;42.17;19.52;;;;;;;4.26;100.00;98203.41;4982143;28;20109;-78
2024/02/16 05:31:19;;;;;;;46.25;21.00;;;;;;;4.29;100.00;98204.22;4955438;28;20030;-77
2024/02/16 05:33:51;;;;;;;48.33;22.92;;;;;;;4.28;100.00;98213.06;4971257;28;20027;-77
2024/02/16 05:36:19;;;;;;;50.88;21.67;;;;;;;4.23;100.00;98208.78;4974521;28;20030;-77
2024/02/16 05:38:46;;;;;;;60.05;21.63;;;;;;;4.20;100.00;98203.56;4960899;28;20048;-77
2024/02/16 05:41:11;;;;;;;45.58;19.83;;;;;;;4.24;100.00;98210.53;4955254;28;20465;-80
2024/02/16 05:43:40;;;;;;;43.50;20.38;;;;;;;4.33;100.00;98210.28;4955648;28;20031;-79
2024/02/16 05:46:06;;;;;;;44.78;21.33;;;;;;;4.40;100.00;98217.16;4973755;28;20031;-80
2024/02/16 05:48:37;;;;;;;43.35;20.75;;;;;;;4.35;100.00;98219.94;4971225;28;20019;-79
2024/02/16 05:51:05;;;;;;;40.95;19.90;;;;;;;4.43;100.00;98209.13;4971833;28;20054;-80
2024/02/16 05:53:31;;;;;;;45.10;19.48;;;;;;;4.59;100.00;98223.69;4983900;28;20089;-77
2024/02/16 05:55:56;;;;;;;37.80;17.73;;;;;;;4.56;100.00;98210.53;4971184;28;20026;-79
2024/02/16 05:58:23;;;;;;;33.67;17.92;;;;;;;4.65;100.00;98223.53;4971362;28;20038;-77
2024/02/16 06:00:48;;;;;;;39.25;19.30;;;;;;;4.77;100.00;98224.94;4955038;28;20034;-78
2024/02/16 06:03:14;;;;;;;45.03;19.75;;;;;;;4.75;100.00;98225.00;4970293;28;20441;-77
2024/02/16 06:05:49;;;;;;;46.25;19.95;;;;;;;4.79;100.00;98217.84;4993509;28;20038;-77
2024/02/16 06:08:18;;;;;;;49.20;19.10;;;;;;;4.91;100.00;98223.66;4994882;28;20041;-77
2024/02/16 06:10:50;;;;;;;40.20;18.58;;;;;;;5.01;100.00;98226.06;5009969;28;20048;-78
2024/02/16 06:13:16;;;;;;;49.10;18.58;;;;;;;5.02;100.00;98223.34;5001779;28;20129;-77
2024/02/16 06:15:43;;;;;;;43.95;19.15;;;;;;;5.08;100.00;98219.63;5008513;28;20131;-78
2024/02/16 06:18:09;;;;;;;40.63;20.08;;;;;;;5.23;100.00;98227.16;4995272;28;20505;-78
2024/02/16 06:20:35;;;;;;;92.35;35.28;;;;;;;5.14;100.00;98219.47;4977529;28;20023;-77
2024/02/16 06:23:03;;;;;;;141.25;49.75;;;;;;;5.10;100.00;98228.44;4977660;28;20030;-77
2024/02/16 06:25:29;;;;;;;140.00;49.25;;;;;;;5.13;100.00;98233.66;4993880;28;20022;-77
2024/02/16 06:27:55;;;;;;;81.18;35.70;;;;;;;5.19;100.00;98241.41;4977693;28;20038;-77
2024/02/16 06:30:20;;;;;;;70.45;33.10;;;;;;;5.23;100.00;98228.00;4993579;28;20053;-76
2024/02/16 06:32:46;;;;;;;69.93;32.50;;;;;;;5.35;100.00;98232.09;4990646;28;20120;-77
2024/02/16 06:35:37;;;;;;;88.40;40.13;;;;;;;5.28;100.00;98244.69;5013523;28;20466;-77
2024/02/16 06:38:03;;;;;;;88.57;39.90;;;;;;;5.00;100.00;98246.38;5013006;28;20060;-77
2024/02/16 06:40:29;;;;;;;76.63;33.00;;;;;;;4.99;100.00;98239.34;5014569;28;20026;-78
2024/02/16 06:42:55;;;;;;;76.47;32.38;;;;;;;4.91;100.00;98244.88;5013255;28;20022;-77
2024/02/16 06:45:21;;;;;;;64.18;29.98;;;;;;;4.92;100.00;98240.44;5014675;28;20022;-77
2024/02/16 06:47:46;;;;;;;55.00;28.15;;;;;;;5.18;100.00;98244.97;4996565;28;20438;-77
2024/02/16 06:50:12;;;;;;;61.83;26.70;;;;;;;5.39;100.00;98244.34;4996544;28;20025;-79
2024/02/16 06:52:38;;;;;;;59.55;24.73;;;;;;;5.56;100.00;98239.41;5012339;28;20105;-78
2024/02/16 06:55:04;;;;;;;51.88;24.35;;;;;;;5.64;100.00;98237.38;4993156;28;20068;-78
2024/02/16 06:57:31;;;;;;;52.22;25.50;;;;;;;5.63;100.00;98245.41;4993283;28;20091;-77
2024/02/16 06:59:57;;;;;;;56.97;26.17;;;;;;;5.75;100.00;98237.88;4993490;28;20030;-77
2024/02/16 07:02:23;;;;;;;60.13;25.92;;;;;;;5.78;100.00;98242.25;4980131;28;20046;-76
2024/02/16 07:04:48;;;;;;;51.70;23.08;;;;;;;5.88;100.00;98244.59;5006379;28;20412;-78
2024/02/16 07:07:14;;;;;;;59.92;24.67;;;;;;;6.03;100.00;98245.03;5015864;28;20041;-78
2024/02/16 07:09:40;;;;;;;56.30;23.38;;;;;;;6.11;100.00;98242.97;5026270;28;20022;-78
2024/02/16 07:12:06;;;;;;;57.65;25.40;;;;;;;6.18;100.00;98234.75;4979818;28;20026;-78
2024/02/16 07:14:32;;;;;;;51.00;24.75;;;;;;;6.04;100.00;98233.47;4980140;28;20485;-77
2024/02/16 07:17:34;;;;;;;54.13;25.52;;;;;;;6.00;100.00;98251.28;4980145;28;20117;-77
2024/02/16 07:20:03;;;;;;;65.88;25.65;;;;;;;6.10;100.00;98246.53;5024784;28;20018;-78
2024/02/16 07:22:30;;;;;;;60.58;26.42;;;;;;;6.16;100.00;98241.03;4999788;28;20035;-79
2024/02/16 07:24:56;;;;;;;57.67;26.92;;;;;;;6.33;100.00;98236.03;4997095;28;20087;-80
2024/02/16 07:27:21;;;;;;;60.75;28.00;;;;;;;6.58;100.00;98231.59;5013485;28;20037;-77
2024/02/16 07:29:58;;;;;;;59.83;26.85;;;;;;;6.59;100.00;98233.31;5013883;28;20114;-77
2024/02/16 07:32:41;;;;;;;75.25;30.45;;;;;;;6.72;100.00;98239.06;4979927;28;20480;-78
2024/02/16 07:35:06;;;;;;;66.78;30.58;;;;;;;6.90;100.00;98233.09;4995758;28;20034;-77
2024/02/16 07:37:32;;;;;;;68.78;31.27;;;;;;;7.02;100.00;98227.31;4996100;28;20052;-80
2024/02/16 07:40:00;;;;;;;70.20;31.48;;;;;;;6.99;100.00;98225.66;4996330;28;20105;-80
2024/02/16 07:42:26;;;;;;;73.72;30.17;;;;;;;7.73;100.00;98215.72;4980095;28;20095;-77
2024/02/16 07:44:53;;;;;;;58.42;26.63;;;;;;;8.12;100.00;98214.94;4995791;28;20452;-77
2024/02/16 07:47:19;;;;;;;48.90;24.30;;;;;;;8.25;100.00;98209.09;4995745;28;20117;-76
2024/02/16 07:49:44;;;;;;;50.17;24.63;;;;;;;8.78;100.00;98210.38;4995836;28;20117;-77
2024/02/16 07:52:10;;;;;;;57.28;26.90;;;;;;;8.90;100.00;98188.50;4979028;28;20502;-77
2024/02/16 07:54:36;;;;;;;67.20;28.75;;;;;;;9.54;100.00;98209.53;4995916;28;20456;-79
2024/02/16 07:57:01;;;;;;;48.78;24.75;;;;;;;9.71;100.00;98221.16;5013103;28;20030;-81
2024/02/16 07:59:27;;;;;;;48.05;20.70;;;;;;;10.11;100.00;98209.41;4979350;28;20418;-78
2024/02/16 08:01:52;;;;;;;35.10;18.50;;;;;;;10.18;100.00;98202.84;4995916;28;20416;-79
2024/02/16 08:04:18;;;;;;;38.65;20.45;;;;;;;10.43;100.00;98207.81;5014918;28;20100;-79
2024/02/16 08:06:44;;;;;;;50.22;22.95;;;;;;;10.71;100.00;98199.22;5014738;28;20044;-78
2024/02/16 08:09:10;;;;;;;41.75;21.88;;;;;;;10.31;100.00;98214.66;5014708;28;20037;-77
2024/02/16 08:11:36;;;;;;;45.72;20.58;;;;;;;10.31;100.00;98216.47;4998238;28;20041;-77
2024/02/16 08:14:02;;;;;;;32.28;16.85;;;;;;;10.13;100.00;98226.25;4980439;28;20034;-78
2024/02/16 08:16:28;;;;;;;37.55;16.17;;;;;;;10.42;100.00;98229.31;4978950;28;20168;-77
2024/02/16 08:18:53;;;;;;;25.00;13.63;;;;;;;10.64;100.00;98213.91;4978766;28;20081;-78
2024/02/16 08:21:19;;;;;;;22.48;13.02;;;;;;;10.60;100.00;98213.19;4982077;28;20068;-78
2024/02/16 08:23:44;;;;;;;23.60;12.57;;;;;;;10.64;100.00;98214.72;4998143;28;20025;-76
2024/02/16 08:26:10;;;;;;;27.58;15.23;;;;;;;11.06;100.00;98203.63;4996347;28;20036;-78
2024/02/16 08:28:36;;;;;;;26.83;14.65;;;;;;;11.40;100.00;98213.38;5014635;28;20029;-77
2024/02/16 08:31:01;;;;;;;18.30;10.98;;;;;;;11.83;96.45;98209.22;5006800;28;20034;-78
2024/02/16 08:33:27;;;;;;;27.45;13.80;;;;;;;12.22;93.57;98203.38;5007236;28;20044;-77
2024/02/16 08:35:52;;;;;;;26.67;13.55;;;;;;;12.87;87.61;98191.41;4997411;28;20029;-77
2024/02/16 08:38:18;;;;;;;32.53;15.07;;;;;;;13.36;79.74;98179.38;5014215;28;20064;-77
2024/02/16 08:40:44;;;;;;;30.42;15.73;;;;;;;14.19;73.87;98177.59;5014619;28;20026;-76
2024/02/16 08:43:09;;;;;;;30.30;15.45;;;;;;;14.67;67.70;98178.84;4997707;28;20065;-77
2024/02/16 08:45:35;;;;;;;28.45;14.95;;;;;;;14.60;64.82;98173.88;4994599;28;20033;-77
2024/02/16 08:48:03;;;;;;;31.60;15.15;;;;;;;14.60;64.99;98163.13;4978452;28;20105;-80
2024/02/16 08:50:29;;;;;;;33.60;16.65;;;;;;;16.14;59.63;98161.03;4995240;28;20026;-76
2024/02/16 08:52:55;;;;;;;30.15;16.85;;;;;;;17.72;53.84;98154.97;4994537;28;20034;-79
2024/02/16 08:55:20;;;;;;;30.10;15.65;;;;;;;18.08;51.47;98145.69;4994733;28;20037;-80
2024/02/16 08:57:46;;;;;;;32.28;16.38;;;;;;;18.87;48.80;98140.72;4994099;28;20034;-78
2024/02/16 09:00:12;;;;;;;17.85;10.27;;;;;;;18.97;45.85;98129.06;5010794;28;20113;-78
2024/02/16 09:02:38;;;;;;;18.88;11.18;;;;;;;18.36;46.46;98142.41;5010509;28;20056;-78
2024/02/16 09:05:04;;;;;;;17.10;11.30;;;;;;;17.93;47.08;98136.13;4994372;28;20026;-78
2024/02/16 09:07:30;;;;;;;21.60;12.02;;;;;;;17.55;47.79;98142.81;4994158;28;20113;-78
2024/02/16 09:09:56;;;;;;;22.08;12.48;;;;;;;16.66;49.41;98145.34;5005247;28;20061;-78
2024/02/16 09:12:22;;;;;;;22.48;10.48;;;;;;;16.80;50.70;98145.13;4997154;28;20025;-77
2024/02/16 09:14:48;;;;;;;13.80;8.73;;;;;;;18.12;47.88;98147.16;5014050;28;20029;-78
2024/02/16 09:17:14;;;;;;;12.85;7.35;;;;;;;19.20;45.28;98136.91;5021922;28;20059;-78
2024/02/16 09:19:39;;;;;;;13.38;6.85;;;;;;;18.86;45.07;98133.56;4985620;28;20117;-78
2024/02/16 09:22:06;;;;;;;9.93;6.20;;;;;;;19.07;44.47;98140.84;5018347;28;20030;-77
2024/02/16 09:24:32;;;;;;;9.27;5.75;;;;;;;18.20;45.50;98148.25;4996264;28;20026;-78
2024/02/16 09:27:01;;;;;;;14.85;6.28;;;;;;;18.60;44.96;98144.94;4999556;28;20022;-78
2024/02/16 09:29:28;;;;;;;10.75;6.50;;;;;;;17.48;47.67;98152.34;5022191;28;20036;-78
2024/02/16 09:31:54;;;;;;;11.88;5.95;;;;;;;17.46;47.23;98154.34;5017794;28;20032;-76
2024/02/16 09:34:19;;;;;;;10.63;6.43;;;;;;;17.10;48.12;98154.56;5011582;28;20025;-77
2024/02/16 09:36:45;;;;;;;13.02;7.20;;;;;;;16.20;50.49;98165.97;4998884;28;20041;-76
2024/02/16 09:39:11;;;;;;;14.10;7.57;;;;;;;15.58;52.76;98163.38;4990000;28;20033;-75
2024/02/16 09:41:36;;;;;;;14.65;6.63;;;;;;;15.36;54.93;98175.75;5005332;28;20512;-77
2024/02/16 09:44:03;;;;;;;14.45;7.55;;;;;;;15.58;55.21;98179.56;5005941;28;20026;-77
2024/02/16 09:46:30;;;;;;;16.38;6.93;;;;;;;14.98;57.10;98171.22;5001903;28;20053;-76
2024/02/16 09:48:56;;;;;;;15.68;6.85;;;;;;;15.27;58.09;98182.66;5002738;28;20457;-75
2024/02/16 09:51:22;;;;;;;14.00;6.97;;;;;;;15.24;58.75;98177.50;5000847;28;20026;-76
2024/02/16 09:53:55;;;;;;;14.13;6.50;;;;;;;15.79;58.26;98173.56;5017212;28;20040;-77
2024/02/16 09:56:21;;;;;;;13.70;5.85;;;;;;;16.37;55.66;98162.88;5033746;28;20440;-77
2024/02/16 09:58:47;;;;;;;12.52;6.15;;;;;;;17.12;53.63;98150.75;4981156;28;20048;-77
2024/02/16 10:01:20;;;;;;;13.00;6.72;;;;;;;15.93;53.75;98154.53;4997258;28;20033;-76
2024/02/16 10:03:46;;;;;;;13.45;6.90;;;;;;;15.63;55.16;98165.72;4992793;28;20049;-76
2024/02/16 10:06:12;;;;;;;13.50;7.20;;;;;;;15.44;57.57;98163.44;4993730;28;20044;-77
2024/02/16 10:08:52;;;;;;;16.83;7.38;;;;;;;14.96;59.69;98153.44;5010099;28;20025;-77
2024/02/16 10:11:19;;;;;;;13.27;7.50;;;;;;;15.60;60.45;98161.41;4977725;28;20072;-77
2024/02/16 10:13:56;;;;;;;12.13;6.88;;;;;;;16.14;57.90;98152.94;5002218;28;20445;-76
2024/02/16 10:16:22;;;;;;;13.02;7.32;;;;;;;15.58;56.19;98146.31;4978514;28;20041;-76
2024/02/16 10:18:48;;;;;;;12.07;7.05;;;;;;;15.56;56.23;98145.59;4978150;28;20038;-76
2024/02/16 10:21:13;;;;;;;19.00;11.50;;;;;;;16.04;55.24;98141.09;4978693;28;20073;-78
2024/02/16 10:23:39;;;;;;;11.48;6.07;;;;;;;15.22;55.08;98138.16;5001569;28;20045;-77
2024/02/16 10:26:04;;;;;;;16.30;7.53;;;;;;;15.51;55.74;98124.31;4998775;28;20022;-77
2024/02/16 10:28:31;;;;;;;14.02;7.18;;;;;;;15.72;56.02;98129.97;5013453;28;20033;-78
2024/02/16 10:31:05;;;;;;;14.02;7.38;;;;;;;15.97;55.05;98126.34;5013423;28;20091;-77
2024/02/16 10:33:32;;;;;;;14.13;6.93;;;;;;;16.16;54.45;98116.75;5011891;28;20517;-77
2024/02/16 10:35:58;;;;;;;31.98;9.30;;;;;;;16.15;53.92;98112.31;5006604;28;20037;-77
2024/02/16 10:38:26;;;;;;;12.43;6.38;;;;;;;16.01;52.82;98109.81;4997029;28;20087;-76
2024/02/16 10:40:53;;;;;;;12.07;6.50;;;;;;;15.31;54.75;98114.09;5010374;28;20026;-76
2024/02/16 10:43:20;;;;;;;11.43;6.38;;;;;;;15.32;55.70;98112.28;4983402;28;20030;-79
2024/02/16 10:45:56;;;;;;;12.75;5.80;;;;;;;15.22;55.99;98112.06;4996845;28;20034;-76
2024/02/16 10:48:22;;;;;;;9.13;5.53;;;;;;;15.34;56.32;98110.31;4984494;28;20405;-78
2024/02/16 10:50:50;;;;;;;11.90;5.70;;;;;;;15.92;54.82;98107.81;5009765;28;20045;-76
2024/02/16 10:53:27;;;;;;;5.90;4.25;;;;;;;15.23;55.23;98112.94;4991054;28;20497;-75
2024/02/16 10:55:53;;;;;;;13.32;5.07;;;;;;;15.30;55.89;98109.66;4979518;28;20023;-75
2024/02/16 10:58:19;;;;;;;9.80;5.53;;;;;;;15.75;54.50;98110.03;5006556;28;20026;-76
2024/02/16 11:00:55;;;;;;;14.32;5.72;;;;;;;17.09;52.15;98096.06;4979529;28;20034;-76
2024/02/16 11:03:26;;;;;;;9.98;5.53;;;;;;;17.60;50.17;98086.47;5005341;28;20061;-76
2024/02/16 11:05:52;;;;;;;23.10;12.27;;;;;;;17.59;50.04;98082.06;5012768;28;20062;-76
2024/02/16 11:08:19;;;;;;;8.40;5.45;;;;;;;16.98;49.81;98077.13;5011228;28;20029;-76
2024/02/16 11:10:56;;;;;;;9.60;5.07;;;;;;;17.20;49.51;98077.97;5001878;28;20110;-76
2024/02/16 11:13:32;;;;;;;11.60;7.05;;;;;;;17.21;49.92;98065.31;4985923;28;20034;-77
2024/02/16 11:16:02;;;;;;;8.60;5.40;;;;;;;17.54;49.00;98068.00;5004727;28;20125;-76